Terminal Aerodrome Forecast
Issued by NWS

Current Version | Previous Version | Graphics & Text | Print | Product List | Glossary On
Versions: 1 2 3 4 5 6 7 8 9 10 11 12 13 14 15 16 17 18 19 20
248
FTUS41 KPBZ 201907 AAA
TAFMGW
TAF AMD
KMGW 201907Z 2019/2118 22012G18KT P6SM BKN035
      TEMPO 2019/2020 5SM -TSRA BKN030CB
     FM210500 21008KT 5SM -SHRA VCTS OVC040CB
     FM210800 23010KT P6SM -SHRA OVC025=

USA.gov is the U.S. government's official web portal to all federal, state and local government web resources and services.